createdAt,value
2018-09-17T00:00:08.352Z,19.00
2018-09-17T00:02:39.352Z,18.90
2018-09-17T00:05:10.485Z,18.90
2018-09-17T00:07:41.530Z,18.90
2018-09-17T00:10:12.539Z,18.80
2018-09-17T00:12:43.442Z,18.80
2018-09-17T00:15:14.234Z,18.80
2018-09-17T00:17:45.075Z,18.80
2018-09-17T00:20:15.920Z,18.80
2018-09-17T00:22:46.781Z,18.80
2018-09-17T00:25:17.662Z,18.80
2018-09-17T00:27:48.464Z,18.70
2018-09-17T00:30:19.259Z,18.70
2018-09-17T00:32:50.022Z,18.80
2018-09-17T00:35:20.884Z,18.80
2018-09-17T00:37:51.692Z,18.70
2018-09-17T00:40:22.732Z,18.70
2018-09-17T00:42:53.573Z,18.60
2018-09-17T00:45:24.376Z,18.50
2018-09-17T00:47:55.616Z,18.50
2018-09-17T00:50:26.565Z,18.50
2018-09-17T00:52:57.427Z,18.60
2018-09-17T00:55:28.285Z,18.50
2018-09-17T00:57:59.123Z,18.50
2018-09-17T01:00:29.939Z,18.60
2018-09-17T01:03:00.839Z,18.50
2018-09-17T01:05:31.829Z,18.40
2018-09-17T01:08:02.678Z,18.40
2018-09-17T01:10:33.548Z,18.30
2018-09-17T01:13:04.359Z,18.40
2018-09-17T01:15:35.277Z,18.40
2018-09-17T01:18:06.140Z,18.40
2018-09-17T01:20:37.615Z,18.30
2018-09-17T01:23:08.531Z,18.30
2018-09-17T01:25:39.326Z,18.40
2018-09-17T01:28:10.199Z,18.30
2018-09-17T01:30:41.041Z,18.30
2018-09-17T01:33:11.841Z,18.30
2018-09-17T01:35:42.717Z,18.40
2018-09-17T01:38:14.125Z,18.40
2018-09-17T01:40:44.996Z,18.40
2018-09-17T01:43:16.460Z,18.30
2018-09-17T01:45:47.759Z,18.20
2018-09-17T01:48:19.086Z,18.10
2018-09-17T01:50:50.205Z,18.10
2018-09-17T01:53:21.608Z,18.10
2018-09-17T01:55:52.594Z,18.10
2018-09-17T01:58:24.003Z,18.10
2018-09-17T02:00:55.407Z,18.10
2018-09-17T02:03:27.087Z,18.10
2018-09-17T02:05:58.493Z,18.00
2018-09-17T02:08:29.674Z,18.10
2018-09-17T02:11:00.908Z,18.10
2018-09-17T02:13:32.141Z,18.00
2018-09-17T02:16:03.073Z,18.00
2018-09-17T02:18:34.137Z,18.00
2018-09-17T02:21:05.267Z,17.90
2018-09-17T02:23:36.429Z,17.90
2018-09-17T02:26:07.347Z,17.90
2018-09-17T02:28:38.482Z,17.80
2018-09-17T02:31:09.420Z,17.90
2018-09-17T02:33:40.283Z,17.90
2018-09-17T02:36:11.072Z,17.90
2018-09-17T02:38:41.897Z,17.90
2018-09-17T02:41:12.707Z,18.00
2018-09-17T02:43:43.536Z,17.90
2018-09-17T02:46:14.409Z,17.90
2018-09-17T02:48:45.194Z,18.00
2018-09-17T02:51:15.965Z,18.00
2018-09-17T02:53:46.793Z,17.90
2018-09-17T02:56:17.581Z,17.90
2018-09-17T02:58:48.485Z,17.90
2018-09-17T03:01:19.356Z,18.00
2018-09-17T03:03:50.814Z,17.90
2018-09-17T03:06:21.577Z,17.90
2018-09-17T03:08:52.370Z,17.80
2018-09-17T03:11:23.339Z,17.90
2018-09-17T03:13:54.160Z,17.90
2018-09-17T03:16:25.013Z,17.90
2018-09-17T03:18:57.089Z,18.00
2018-09-17T03:21:28.057Z,17.90
2018-09-17T03:23:58.827Z,17.90
2018-09-17T03:26:29.623Z,17.90
2018-09-17T03:29:00.498Z,17.90
2018-09-17T03:31:31.517Z,17.90
2018-09-17T03:34:02.379Z,17.90
2018-09-17T03:36:33.176Z,17.80
2018-09-17T03:39:04.963Z,17.80
2018-09-17T03:41:36.217Z,17.70
2018-09-17T03:44:07.075Z,17.80
2018-09-17T03:46:38.125Z,17.70
2018-09-17T03:49:08.961Z,17.60
2018-09-17T03:51:39.880Z,17.60
2018-09-17T03:54:10.673Z,17.70
2018-09-17T03:56:41.535Z,17.70
2018-09-17T03:59:12.354Z,17.70
2018-09-17T04:01:43.215Z,17.60
2018-09-17T04:04:14.031Z,17.50
2018-09-17T04:06:44.804Z,17.60
2018-09-17T04:09:15.669Z,17.50
2018-09-17T04:11:46.456Z,17.50
2018-09-17T04:14:17.292Z,17.50
2018-09-17T04:16:48.107Z,17.50
2018-09-17T04:19:18.915Z,17.60
2018-09-17T04:21:49.736Z,17.60
2018-09-17T04:24:20.614Z,17.60
2018-09-17T04:26:51.376Z,17.50
2018-09-17T04:29:22.178Z,17.40
2018-09-17T04:31:52.977Z,17.30
2018-09-17T04:34:23.879Z,17.40
2018-09-17T04:36:54.648Z,17.40
2018-09-17T04:39:27.019Z,17.40
2018-09-17T04:41:57.857Z,17.40
2018-09-17T04:44:28.614Z,17.40
2018-09-17T04:46:59.451Z,17.40
2018-09-17T04:49:30.529Z,17.40
2018-09-17T04:52:01.401Z,17.50
2018-09-17T04:54:32.356Z,17.50
2018-09-17T04:57:03.219Z,17.40
2018-09-17T04:59:34.075Z,17.50
2018-09-17T05:02:04.893Z,17.60
2018-09-17T05:04:35.804Z,17.60
2018-09-17T05:07:06.671Z,17.60
2018-09-17T05:09:37.608Z,17.50
2018-09-17T05:12:09.100Z,17.50
2018-09-17T05:14:40.057Z,17.60
2018-09-17T05:17:11.080Z,17.60
2018-09-17T05:19:41.997Z,17.60
2018-09-17T05:22:12.843Z,17.70
2018-09-17T05:24:43.769Z,17.70
2018-09-17T05:27:14.584Z,17.80
2018-09-17T05:29:45.450Z,17.80
2018-09-17T05:32:16.323Z,18.10
2018-09-17T05:34:47.225Z,18.20
2018-09-17T05:37:18.103Z,18.50
2018-09-17T05:39:49.046Z,19.10
2018-09-17T05:42:20.288Z,19.50
2018-09-17T05:44:51.105Z,19.80
2018-09-17T05:47:21.953Z,19.90
2018-09-17T05:49:52.766Z,20.00
2018-09-17T05:52:23.590Z,20.10
2018-09-17T05:54:54.395Z,20.60
2018-09-17T05:57:25.213Z,21.10
2018-09-17T05:59:56.199Z,21.30
2018-09-17T06:02:27.253Z,21.40
2018-09-17T06:04:58.148Z,21.50
2018-09-17T06:07:29.221Z,21.80
2018-09-17T06:10:00.091Z,22.10
2018-09-17T06:12:31.118Z,21.90
2018-09-17T06:15:02.039Z,22.10
2018-09-17T06:17:33.002Z,22.20
2018-09-17T06:20:03.804Z,22.00
2018-09-17T06:22:34.787Z,22.10
2018-09-17T06:25:05.953Z,21.80
2018-09-17T06:27:36.803Z,21.60
2018-09-17T06:30:08.725Z,22.10
2018-09-17T06:32:39.974Z,22.30
2018-09-17T06:35:10.820Z,22.80
2018-09-17T06:37:41.867Z,23.20
2018-09-17T06:40:12.657Z,23.10
2018-09-17T06:42:43.434Z,23.20
2018-09-17T06:45:14.337Z,23.00
2018-09-17T06:47:45.190Z,22.80
2018-09-17T06:50:16.039Z,22.70
2018-09-17T06:52:46.861Z,22.90
2018-09-17T06:55:17.805Z,22.90
2018-09-17T06:57:48.660Z,23.10
2018-09-17T07:00:19.524Z,23.00
2018-09-17T07:02:50.421Z,22.70
2018-09-17T07:05:21.352Z,22.60
2018-09-17T07:07:52.232Z,22.70
2018-09-17T07:10:23.190Z,22.90
2018-09-17T07:12:54.091Z,22.80
2018-09-17T07:15:25.740Z,23.00
2018-09-17T07:17:56.689Z,23.20
2018-09-17T07:20:27.486Z,23.50
2018-09-17T07:22:58.359Z,23.80
2018-09-17T07:25:29.456Z,24.30
2018-09-17T07:28:00.217Z,24.10
2018-09-17T07:30:31.209Z,24.90
2018-09-17T07:33:02.049Z,25.20
2018-09-17T07:35:33.188Z,25.50
2018-09-17T07:38:03.976Z,25.50
2018-09-17T07:40:34.856Z,25.60
2018-09-17T07:43:05.931Z,26.00
2018-09-17T07:45:36.781Z,26.20
2018-09-17T07:48:07.761Z,25.40
2018-09-17T07:50:38.611Z,25.40
2018-09-17T07:53:09.999Z,25.20
2018-09-17T07:55:40.850Z,24.90
2018-09-17T07:58:11.670Z,24.60
2018-09-17T08:00:42.632Z,24.10
2018-09-17T08:03:13.451Z,24.40
2018-09-17T08:05:44.368Z,24.40
2018-09-17T08:08:15.292Z,24.70
2018-09-17T08:10:46.209Z,25.70
2018-09-17T08:13:17.156Z,26.30
2018-09-17T08:15:48.009Z,27.00
2018-09-17T08:18:18.876Z,27.60
2018-09-17T08:20:49.977Z,28.10
2018-09-17T08:23:20.824Z,28.00
2018-09-17T08:25:51.718Z,28.30
2018-09-17T08:28:22.574Z,28.40
2018-09-17T08:30:53.432Z,28.50
2018-09-17T08:33:24.276Z,28.70
2018-09-17T08:35:55.191Z,28.90
2018-09-17T08:38:26.056Z,28.30
2018-09-17T08:40:56.981Z,28.50
2018-09-17T08:43:27.935Z,28.90
2018-09-17T08:45:58.860Z,29.30
2018-09-17T08:48:29.801Z,30.00
2018-09-17T08:51:00.748Z,29.30
2018-09-17T08:53:31.782Z,29.30
2018-09-17T08:56:07.496Z,29.40
2018-09-17T08:58:43.242Z,29.10
2018-09-17T09:01:19.030Z,29.30
2018-09-17T09:03:54.876Z,29.90
2018-09-17T09:06:29.716Z,29.80
2018-09-17T09:09:00.529Z,30.10
2018-09-17T09:11:36.375Z,29.70
2018-09-17T09:14:10.110Z,29.90
2018-09-17T09:16:40.962Z,30.10
2018-09-17T09:19:11.912Z,31.00
2018-09-17T09:21:42.811Z,31.90
2018-09-17T09:24:13.604Z,32.20
2018-09-17T09:26:44.465Z,32.10
2018-09-17T09:29:15.309Z,32.00
2018-09-17T09:31:46.198Z,31.90
2018-09-17T09:34:17.081Z,31.80
2018-09-17T09:36:47.921Z,32.00
2018-09-17T09:39:18.825Z,31.20
2018-09-17T09:41:49.720Z,31.40
2018-09-17T09:44:20.518Z,32.20
2018-09-17T09:46:51.355Z,32.90
2018-09-17T09:49:22.260Z,33.10
2018-09-17T09:51:53.036Z,33.70
2018-09-17T09:54:23.935Z,34.00
2018-09-17T09:56:55.015Z,33.50
2018-09-17T09:59:25.928Z,33.60
2018-09-17T10:02:01.824Z,34.30
2018-09-17T10:04:32.665Z,34.40
2018-09-17T10:07:04.064Z,33.50
2018-09-17T10:09:40.264Z,32.50
2018-09-17T10:12:16.189Z,31.40
2018-09-17T10:14:52.129Z,31.00
2018-09-17T10:17:28.013Z,31.90
2018-09-17T10:19:58.859Z,32.40
2018-09-17T10:22:30.103Z,32.50
2018-09-17T10:25:00.865Z,32.60
2018-09-17T10:27:31.840Z,33.10
2018-09-17T10:30:02.856Z,33.10
2018-09-17T10:32:33.783Z,33.30
2018-09-17T10:35:05.406Z,32.40
2018-09-17T10:37:36.548Z,31.90
2018-09-17T10:40:07.446Z,31.60
2018-09-17T10:42:38.349Z,31.20
2018-09-17T10:45:09.152Z,31.20
2018-09-17T10:47:39.953Z,31.70
2018-09-17T10:50:10.903Z,32.20
2018-09-17T10:52:42.159Z,32.00
2018-09-17T10:55:13.965Z,32.00
2018-09-17T10:57:44.748Z,31.70
2018-09-17T11:00:15.632Z,31.60
2018-09-17T11:02:46.456Z,31.70
2018-09-17T11:05:17.372Z,31.70
2018-09-17T11:07:48.141Z,31.20
2018-09-17T11:10:18.993Z,31.00
2018-09-17T11:12:50.506Z,30.90
2018-09-17T11:15:21.406Z,30.70
2018-09-17T11:17:52.245Z,30.60
2018-09-17T11:20:23.103Z,30.70
2018-09-17T11:22:53.923Z,30.70
2018-09-17T11:25:24.774Z,30.00
2018-09-17T11:27:55.669Z,29.70
2018-09-17T11:30:26.513Z,29.80
2018-09-17T11:32:57.414Z,30.20
2018-09-17T11:35:28.345Z,30.30
2018-09-17T11:37:59.141Z,30.10
2018-09-17T11:40:29.989Z,29.60
2018-09-17T11:43:00.751Z,29.40
2018-09-17T11:45:31.669Z,29.40
2018-09-17T11:48:02.489Z,29.40
2018-09-17T11:50:33.368Z,29.80
2018-09-17T11:53:04.269Z,29.70
2018-09-17T11:55:35.304Z,29.80
2018-09-17T11:58:06.149Z,29.80
2018-09-17T12:00:41.941Z,29.70
2018-09-17T12:03:17.647Z,29.40
2018-09-17T12:05:53.500Z,29.20
2018-09-17T12:08:24.384Z,28.90
2018-09-17T12:10:55.333Z,28.90
2018-09-17T12:13:26.222Z,28.80
2018-09-17T12:15:56.979Z,28.60
2018-09-17T12:18:27.785Z,28.80
2018-09-17T12:20:58.605Z,29.00
2018-09-17T12:23:29.432Z,28.70
2018-09-17T12:26:00.348Z,28.50
2018-09-17T12:28:31.309Z,28.00
2018-09-17T12:31:02.120Z,27.50
2018-09-17T12:33:33.037Z,27.40
2018-09-17T12:36:03.966Z,27.50
2018-09-17T12:38:34.633Z,27.60
2018-09-17T12:41:05.480Z,27.50
2018-09-17T12:43:36.727Z,27.50
2018-09-17T12:46:07.551Z,27.30
2018-09-17T12:48:38.452Z,27.20
2018-09-17T12:51:09.296Z,27.00
2018-09-17T12:53:40.309Z,27.00
2018-09-17T12:56:11.159Z,26.90
2018-09-17T12:58:42.064Z,26.90
2018-09-17T13:01:12.884Z,27.10
2018-09-17T13:03:44.502Z,27.30
2018-09-17T13:06:15.372Z,27.10
2018-09-17T13:08:46.171Z,27.00
2018-09-17T13:11:16.994Z,27.00
2018-09-17T13:13:47.813Z,27.00
2018-09-17T13:16:18.627Z,26.90
2018-09-17T13:18:49.497Z,27.00
2018-09-17T13:21:20.315Z,27.10
2018-09-17T13:23:51.119Z,27.20
2018-09-17T13:26:21.905Z,27.30
2018-09-17T13:28:52.774Z,27.20
2018-09-17T13:31:23.625Z,27.20
2018-09-17T13:33:54.435Z,27.30
2018-09-17T13:36:25.360Z,27.40
2018-09-17T13:38:56.410Z,27.20
2018-09-17T13:41:27.256Z,27.00
2018-09-17T13:43:58.112Z,27.10
2018-09-17T13:46:28.912Z,27.10
2018-09-17T13:48:59.671Z,27.00
2018-09-17T13:51:30.487Z,27.00
2018-09-17T13:54:01.357Z,27.00
2018-09-17T13:56:32.218Z,27.00
2018-09-17T13:59:03.093Z,27.20
2018-09-17T14:01:34.105Z,27.20
2018-09-17T14:04:04.845Z,27.10
2018-09-17T14:06:35.602Z,27.00
2018-09-17T14:09:09.969Z,27.10
2018-09-17T14:11:41.497Z,27.10
2018-09-17T14:14:12.288Z,27.10
2018-09-17T14:16:43.179Z,26.90
2018-09-17T14:19:14.014Z,26.80
2018-09-17T14:21:44.780Z,26.80
2018-09-17T14:24:15.574Z,26.80
2018-09-17T14:26:46.575Z,26.90
2018-09-17T14:29:17.437Z,26.90
2018-09-17T14:31:53.345Z,26.80
2018-09-17T14:34:23.687Z,26.80
2018-09-17T14:36:54.518Z,26.80
2018-09-17T14:39:25.283Z,26.80
2018-09-17T14:41:56.195Z,26.80
2018-09-17T14:44:27.052Z,26.70
2018-09-17T14:46:57.825Z,26.80
2018-09-17T14:49:28.628Z,26.80
2018-09-17T14:51:59.516Z,26.70
2018-09-17T14:54:30.389Z,26.70
2018-09-17T14:57:01.107Z,26.80
2018-09-17T14:59:31.970Z,26.70
2018-09-17T15:02:02.812Z,26.60
2018-09-17T15:04:33.817Z,26.50
2018-09-17T15:07:04.574Z,26.50
2018-09-17T15:09:35.424Z,26.50
2018-09-17T15:12:06.374Z,26.60
2018-09-17T15:14:37.272Z,26.50
2018-09-17T15:17:08.249Z,26.50
2018-09-17T15:19:39.042Z,26.50
2018-09-17T15:22:09.861Z,26.50
2018-09-17T15:24:40.747Z,26.50
2018-09-17T15:27:11.610Z,26.50
2018-09-17T15:29:42.727Z,26.50
2018-09-17T15:32:13.702Z,26.50
2018-09-17T15:34:44.782Z,26.40
2018-09-17T15:37:15.757Z,26.40
2018-09-17T15:39:46.659Z,26.40
2018-09-17T15:42:17.587Z,26.40
2018-09-17T15:44:48.442Z,26.40
2018-09-17T15:47:19.412Z,26.40
2018-09-17T15:49:50.329Z,26.30
2018-09-17T15:52:21.356Z,26.30
2018-09-17T15:54:52.188Z,26.20
2018-09-17T15:57:23.056Z,26.20
2018-09-17T15:59:54.019Z,26.20
2018-09-17T16:02:24.991Z,26.20
2018-09-17T16:04:55.983Z,26.20
2018-09-17T16:07:26.850Z,26.10
2018-09-17T16:09:57.750Z,26.10
2018-09-17T16:12:28.672Z,26.10
2018-09-17T16:14:59.556Z,26.20
2018-09-17T16:17:30.533Z,26.10
2018-09-17T16:20:01.668Z,26.10
2018-09-17T16:22:32.480Z,26.10
2018-09-17T16:25:03.300Z,26.00
2018-09-17T16:27:34.288Z,26.00
2018-09-17T16:30:06.042Z,25.90
2018-09-17T16:32:36.893Z,25.90
2018-09-17T16:35:08.194Z,25.90
2018-09-17T16:37:39.455Z,25.80
2018-09-17T16:40:10.371Z,25.80
2018-09-17T16:42:41.277Z,25.80
2018-09-17T16:45:12.123Z,25.70
2018-09-17T16:47:43.117Z,25.60
2018-09-17T16:50:14.192Z,25.50
2018-09-17T16:52:46.289Z,25.50
2018-09-17T16:55:17.311Z,25.40
2018-09-17T16:57:48.295Z,25.20
2018-09-17T17:00:19.283Z,25.10
2018-09-17T17:02:50.115Z,25.00
2018-09-17T17:05:21.137Z,24.90
2018-09-17T17:07:52.049Z,24.90
2018-09-17T17:10:22.975Z,24.90
2018-09-17T17:12:54.043Z,24.90
2018-09-17T17:15:25.327Z,24.90
2018-09-17T17:17:56.386Z,24.80
2018-09-17T17:20:27.433Z,24.70
2018-09-17T17:22:58.296Z,24.40
2018-09-17T17:25:29.217Z,24.30
2018-09-17T17:28:00.088Z,24.20
2018-09-17T17:30:31.192Z,24.20
2018-09-17T17:33:02.201Z,24.10
2018-09-17T17:35:33.595Z,24.10
2018-09-17T17:38:04.577Z,24.10
2018-09-17T17:40:35.656Z,24.10
2018-09-17T17:43:06.921Z,24.00
2018-09-17T17:45:38.370Z,24.00
2018-09-17T17:48:09.376Z,24.10
2018-09-17T17:50:40.653Z,24.10
2018-09-17T17:53:12.016Z,23.90
2018-09-17T17:55:43.069Z,23.80
2018-09-17T17:58:14.147Z,23.80
2018-09-17T18:00:45.152Z,23.70
2018-09-17T18:03:16.158Z,23.60
2018-09-17T18:05:47.462Z,23.50
2018-09-17T18:08:18.371Z,23.50
2018-09-17T18:10:49.549Z,23.50
2018-09-17T18:13:21.318Z,23.60
2018-09-17T18:15:52.390Z,23.60
2018-09-17T18:18:23.472Z,23.60
2018-09-17T18:20:54.574Z,23.40
2018-09-17T18:23:25.705Z,23.40
2018-09-17T18:25:57.343Z,23.30
2018-09-17T18:28:28.250Z,23.30
2018-09-17T18:30:59.382Z,23.20
2018-09-17T18:33:30.410Z,23.20
2018-09-17T18:36:01.863Z,23.20
2018-09-17T18:38:33.083Z,23.30
2018-09-17T18:41:04.161Z,23.30
2018-09-17T18:43:36.176Z,23.30
2018-09-17T18:46:07.429Z,23.20
2018-09-17T18:48:39.159Z,23.30
2018-09-17T18:51:10.793Z,23.20
2018-09-17T18:53:41.783Z,23.10
2018-09-17T18:56:12.814Z,23.00
2018-09-17T18:58:43.863Z,23.10
2018-09-17T19:01:14.826Z,23.00
2018-09-17T19:03:46.117Z,22.90
2018-09-17T19:06:17.300Z,22.70
2018-09-17T19:08:48.447Z,22.80
2018-09-17T19:11:19.535Z,22.70
2018-09-17T19:13:55.650Z,22.70
2018-09-17T19:16:31.705Z,22.70
2018-09-17T19:19:03.055Z,22.60
2018-09-17T19:21:39.196Z,22.70
2018-09-17T19:24:09.923Z,22.70
2018-09-17T19:26:41.208Z,22.60
2018-09-17T19:29:22.441Z,22.60
2018-09-17T19:31:53.521Z,22.50
2018-09-17T19:34:24.709Z,22.40
2018-09-17T19:36:59.801Z,22.40
2018-09-17T19:39:35.850Z,22.40
2018-09-17T19:42:07.371Z,22.50
2018-09-17T19:44:38.701Z,22.40
2018-09-17T19:47:10.097Z,22.40
2018-09-17T19:49:41.511Z,22.40
2018-09-17T19:52:18.590Z,22.40
2018-09-17T19:54:49.853Z,22.20
2018-09-17T19:57:25.815Z,22.10
2018-09-17T19:59:58.924Z,22.20
2018-09-17T20:02:30.484Z,22.10
2018-09-17T20:06:10.104Z,22.00
2018-09-17T20:08:41.390Z,22.00
2018-09-17T20:11:12.414Z,22.10
2018-09-17T20:13:48.285Z,21.90
2018-09-17T20:16:21.938Z,21.90
2018-09-17T20:18:53.189Z,22.10
2018-09-17T20:21:25.719Z,22.00
2018-09-17T20:23:57.124Z,21.90
2018-09-17T20:26:28.255Z,21.80
2018-09-17T20:28:59.606Z,21.80
2018-09-17T20:31:31.411Z,21.90
2018-09-17T20:34:02.465Z,21.90
2018-09-17T20:36:33.829Z,21.80
2018-09-17T20:39:06.277Z,21.60
2018-09-17T20:41:37.258Z,21.50
2018-09-17T20:44:08.308Z,21.60
2018-09-17T20:46:39.522Z,21.60
2018-09-17T20:49:10.627Z,21.50
2018-09-17T20:51:41.599Z,21.50
2018-09-17T20:54:12.785Z,21.50
2018-09-17T20:56:43.679Z,21.50
2018-09-17T20:59:14.822Z,21.30
2018-09-17T21:01:45.745Z,21.30
2018-09-17T21:04:16.909Z,21.10
2018-09-17T21:06:47.880Z,21.10
2018-09-17T21:09:19.223Z,21.00
2018-09-17T21:11:50.207Z,20.90
2018-09-17T21:14:21.141Z,20.80
2018-09-17T21:16:51.995Z,20.80
2018-09-17T21:19:23.100Z,20.80
2018-09-17T21:21:54.100Z,20.70
2018-09-17T21:24:25.102Z,20.70
2018-09-17T21:26:56.173Z,20.60
2018-09-17T21:29:27.138Z,20.50
2018-09-17T21:31:58.164Z,20.50
2018-09-17T21:34:29.138Z,20.60
2018-09-17T21:37:00.386Z,20.60
2018-09-17T21:39:31.336Z,20.60
2018-09-17T21:42:02.187Z,20.60
2018-09-17T21:44:33.061Z,20.60
2018-09-17T21:47:03.937Z,20.50
2018-09-17T21:49:34.996Z,20.50
2018-09-17T21:52:06.107Z,20.40
2018-09-17T21:54:36.939Z,20.30
2018-09-17T21:57:07.944Z,20.30
2018-09-17T21:59:38.793Z,20.40
2018-09-17T22:02:09.639Z,20.40
2018-09-17T22:04:40.550Z,20.40
2018-09-17T22:07:11.390Z,20.50
2018-09-17T22:09:42.353Z,20.30
2018-09-17T22:12:13.296Z,20.20
2018-09-17T22:14:44.204Z,20.30
2018-09-17T22:17:15.014Z,20.30
2018-09-17T22:19:45.952Z,20.30
2018-09-17T22:22:16.795Z,20.20
2018-09-17T22:24:47.679Z,20.00
2018-09-17T22:27:18.609Z,19.70
2018-09-17T22:29:49.669Z,19.80
2018-09-17T22:32:20.481Z,19.70
2018-09-17T22:34:51.315Z,19.70
2018-09-17T22:37:22.160Z,19.80
2018-09-17T22:39:53.073Z,19.80
2018-09-17T22:42:24.209Z,19.70
2018-09-17T22:44:55.045Z,19.70
2018-09-17T22:47:25.908Z,19.70
2018-09-17T22:49:56.770Z,19.60
2018-09-17T22:52:27.664Z,19.70
2018-09-17T22:54:58.505Z,19.70
2018-09-17T22:57:29.405Z,19.60
2018-09-17T23:00:00.214Z,19.60
2018-09-17T23:02:32.036Z,19.50
2018-09-17T23:05:03.056Z,19.40
2018-09-17T23:07:33.974Z,19.50
2018-09-17T23:10:05.731Z,19.50
2018-09-17T23:12:36.593Z,19.40
2018-09-17T23:15:07.500Z,19.30
2018-09-17T23:17:38.275Z,19.40
2018-09-17T23:20:09.132Z,19.50
2018-09-17T23:22:40.080Z,19.50
2018-09-17T23:25:11.000Z,19.40
2018-09-17T23:27:41.814Z,19.30
2018-09-17T23:30:12.869Z,19.30
2018-09-17T23:32:43.742Z,19.10
2018-09-17T23:35:15.319Z,19.10
2018-09-17T23:37:46.136Z,19.10
2018-09-17T23:40:16.996Z,19.10
2018-09-17T23:42:47.817Z,19.10
2018-09-17T23:45:19.224Z,19.10
2018-09-17T23:47:50.030Z,19.00
2018-09-17T23:50:20.972Z,19.00
2018-09-17T23:52:51.900Z,18.90
2018-09-17T23:55:22.764Z,18.90
2018-09-17T23:57:53.658Z,18.80
